Stations météo

Publicité
Beg Melen, France (7203): Température de l'air & dewpoint: 08.07.2020 18:00:00 - 14.07.2020 18:00:00 (CEST)Beg Melen, France (7203): Vitesse du vent & gusts: 08.07.2020 18:00:00 - 14.07.2020 18:00:00 (CEST)Beg Melen, France (7203): Direction du vent: 08.07.2020 18:00:00 - 14.07.2020 18:00:00 (CEST)Beg Melen, France (7203): visibility: 08.07.2020 18:00:00 - 14.07.2020 18:00:00 (CEST)Beg Melen, France (7203): Quantités de précipitations: 08.07.2020 18:00:00 - 14.07.2020 18:00:00 (CEST)
Date & Time tt [°C] td [°C] ff [km/h] ff [knt] fx [km/h] fx [knt] dd vv [km] rr [mm]
14.07.2020 18:00:00 19,7 13,8 23 12 50 27 NNW - 0,0
14.07.2020 17:00:00 20,2 15,4 24 13 35 19 WNW 25 0,0
14.07.2020 16:00:00 19,9 15,3 21 11 46 25 W - 0,0
14.07.2020 15:00:00 19,5 15,4 36 19 45 24 W - 0,0
14.07.2020 14:00:00 18,9 15,8 29 16 36 19 W 25 0,0
14.07.2020 13:00:00 19,0 16,0 13 7 23 12 W - 0,0
14.07.2020 12:00:00 18,8 16,6 13 7 24 13 W - 0,0
14.07.2020 11:00:00 17,2 16,1 13 7 23 12 W 10 0,0
14.07.2020 10:00:00 16,9 15,8 9 5 26 14 W - 0,0
14.07.2020 09:00:00 17,3 15,5 11 6 23 12 W - 0,0
14.07.2020 08:00:00 16,8 15,3 14 8 29 16 WNW 25 0,0
14.07.2020 07:00:00 16,9 15,4 18 10 29 16 NW - 0,0
14.07.2020 06:00:00 16,9 14,9 15 8 21 11 WNW - 0,0
14.07.2020 05:00:00 16,6 13,5 11 6 19 10 WNW 20 0,0
14.07.2020 04:00:00 16,6 11,9 11 6 23 12 NW - 0,0
14.07.2020 03:00:00 16,5 11,0 13 7 19 10 NW - 0,0
14.07.2020 02:00:00 16,9 10,7 13 7 31 17 NNW 20 0,0
14.07.2020 01:00:00 17,3 10,9 25 14 35 19 NNW - 0,0
14.07.2020 00:00:00 17,9 11,7 18 10 26 14 NNW - 0,0
13.07.2020 23:00:00 18,8 12,3 22 12 33 18 N 25 0,0
13.07.2020 22:00:00 19,5 13,0 27 14 44 24 NNW - 0,0
13.07.2020 21:00:00 19,9 13,8 35 19 47 26 WNW - 0,0
13.07.2020 20:00:00 20,4 14,3 29 16 44 24 W 25 0,0
13.07.2020 19:00:00 19,9 14,3 27 14 43 23 WSW - 0,0
13.07.2020 18:00:00 19,9 13,1 23 13 43 23 WSW - 0,0
13.07.2020 17:00:00 20,2 12,7 19 11 40 22 W 30 0,0
13.07.2020 16:00:00 19,9 13,6 16 9 32 17 W - 0,0
13.07.2020 15:00:00 20,4 14,1 17 9 29 16 W - 0,0
13.07.2020 14:00:00 20,0 13,2 10 6 23 13 W 25 0,0
13.07.2020 13:00:00 20,9 12,8 9 5 14 8 W - 0,0
13.07.2020 12:00:00 20,7 12,9 10 5 14 8 W - 0,0
13.07.2020 11:00:00 19,5 11,5 11 6 20 11 ENE 25 0,0
13.07.2020 10:00:00 17,7 11,3 13 7 24 13 NE - 0,0
13.07.2020 09:00:00 15,5 9,8 16 8 29 16 NE - 0,0
13.07.2020 08:00:00 14,1 9,7 16 9 27 15 ENE 35 0,0
13.07.2020 07:00:00 13,4 9,6 10 6 22 12 ENE - 0,0
13.07.2020 06:00:00 13,6 9,6 15 8 23 12 NE - 0,0
13.07.2020 05:00:00 14,0 9,6 13 7 29 16 NNE 25 0,0
13.07.2020 04:00:00 14,6 9,6 17 9 30 16 NE - 0,0
13.07.2020 03:00:00 14,6 9,4 15 8 26 14 NE - 0,0
13.07.2020 02:00:00 14,6 9,6 14 8 31 17 NE 25 0,0
13.07.2020 01:00:00 15,6 9,7 20 11 29 16 NNE - 0,0
13.07.2020 00:00:00 16,7 9,6 20 11 38 20 NNE - 0,0
12.07.2020 23:00:00 17,8 9,9 23 12 35 19 NNE 25 0,0
12.07.2020 22:00:00 19,2 11,7 26 14 41 22 NNE - 0,0
12.07.2020 21:00:00 20,9 11,5 14 8 35 19 NNE - 0,0
12.07.2020 20:00:00 20,1 12,8 27 14 36 19 WNW 25 0,0
12.07.2020 19:00:00 21,1 13,5 20 11 32 18 W - 0,0
12.07.2020 18:00:00 21,4 13,6 24 13 28 15 W - 0,0
12.07.2020 17:00:00 21,7 15,1 18 10 26 14 W 30 0,0
12.07.2020 16:00:00 22,9 13,7 11 6 21 12 W - 0,0
12.07.2020 15:00:00 23,5 10,2 8 4 18 10 NNW - 0,0
12.07.2020 14:00:00 23,1 10,5 11 6 17 9 E 25 0,0
12.07.2020 13:00:00 21,5 10,9 13 7 21 12 ENE - 0,0
12.07.2020 12:00:00 19,9 11,6 15 8 27 14 ENE - 0,0
12.07.2020 11:00:00 18,6 11,2 19 10 38 20 E 35 0,0
12.07.2020 10:00:00 16,5 10,1 25 14 37 20 ENE - 0,0
12.07.2020 09:00:00 15,1 9,0 23 12 37 20 E - 0,0
12.07.2020 08:00:00 13,7 8,9 24 13 39 21 ENE 35 0,0
12.07.2020 07:00:00 13,5 8,8 26 14 45 24 ENE - 0,0
12.07.2020 06:00:00 13,7 8,5 27 15 42 23 ENE - 0,0
12.07.2020 05:00:00 14,2 8,6 25 13 42 23 ENE 25 0,0
12.07.2020 04:00:00 14,8 8,7 25 13 42 23 ENE - 0,0
12.07.2020 03:00:00 15,4 8,8 25 14 46 25 ENE - 0,0
12.07.2020 02:00:00 15,7 9,6 32 17 53 29 NE 25 0,0
12.07.2020 01:00:00 15,9 10,2 31 17 49 26 NE - 0,0
12.07.2020 00:00:00 16,3 11,0 34 18 46 25 NE - 0,0
11.07.2020 23:00:00 17,5 11,5 31 17 41 22 NNE 25 0,0
11.07.2020 22:00:00 18,6 11,4 34 18 43 23 NNE - 0,0
11.07.2020 21:00:00 18,4 13,7 6 4 21 11 NNW - 0,0
11.07.2020 20:00:00 18,9 13,3 18 10 31 17 WNW 25 0,0
11.07.2020 19:00:00 19,1 13,3 18 10 33 18 W - 0,0
11.07.2020 18:00:00 19,8 13,3 20 11 33 18 W - 0,0
11.07.2020 17:00:00 20,1 11,6 16 8 28 15 W 30 0,0
11.07.2020 16:00:00 20,5 11,7 11 6 27 14 W - 0,0
11.07.2020 15:00:00 21,2 11,2 10 5 19 11 W - 0,0
11.07.2020 14:00:00 21,2 9,4 9 5 21 11 E 20 0,0
11.07.2020 13:00:00 20,4 9,6 11 6 22 12 E - 0,0
11.07.2020 12:00:00 19,2 10,7 10 5 27 14 E - 0,0
11.07.2020 11:00:00 17,7 11,0 17 9 32 18 ENE 25 0,0
11.07.2020 10:00:00 16,4 11,3 19 11 34 18 ENE - 0,0
11.07.2020 09:00:00 14,6 11,0 21 12 29 16 NE - 0,0
11.07.2020 08:00:00 12,4 9,9 13 7 27 14 NE 30 0,0
11.07.2020 07:00:00 12,0 9,9 19 11 32 18 NE - 0,0
11.07.2020 06:00:00 11,9 9,8 22 12 29 16 NNE - 0,0
11.07.2020 05:00:00 12,1 9,8 21 11 35 19 NNE 25 0,0
11.07.2020 04:00:00 12,4 9,8 19 11 33 18 NNE - 0,0
11.07.2020 03:00:00 13,0 9,6 25 13 35 19 NNE - 0,0
11.07.2020 02:00:00 13,3 9,4 21 11 32 18 NNE 25 0,0
11.07.2020 01:00:00 13,7 8,9 21 12 37 20 NNE - 0,0
11.07.2020 00:00:00 14,5 8,9 26 14 46 25 NNE - 0,0
10.07.2020 23:00:00 15,7 9,8 33 18 51 28 NNE 25 0,0
10.07.2020 22:00:00 17,5 11,3 36 20 50 27 N - 0,0
10.07.2020 21:00:00 19,0 12,0 38 20 48 26 N - 0,0
10.07.2020 20:00:00 19,8 12,1 38 21 46 25 N 30 0,0
10.07.2020 19:00:00 20,4 13,1 31 17 44 24 NNW - 0,0
10.07.2020 18:00:00 19,7 14,3 22 12 43 23 W - 0,0
10.07.2020 17:00:00 19,1 14,6 19 11 41 22 W 25 0,0
10.07.2020 16:00:00 18,9 14,6 21 11 44 24 W - 0,0
10.07.2020 15:00:00 18,7 13,8 19 11 40 22 W - 0,0
10.07.2020 14:00:00 18,5 12,5 16 8 26 14 W 18 0,0
10.07.2020 13:00:00 19,8 12,5 8 4 31 17 WNW - 0,0
10.07.2020 12:00:00 18,1 12,3 24 13 38 21 N - 0,0
10.07.2020 11:00:00 17,0 12,7 27 14 46 25 N 20 0,0
10.07.2020 10:00:00 15,5 12,3 36 19 44 24 N - 0,0
10.07.2020 09:00:00 14,6 12,3 32 17 48 26 N - 0,0
10.07.2020 08:00:00 14,1 12,0 37 20 48 26 N 25 0,0
10.07.2020 07:00:00 14,3 12,3 35 19 51 28 N - 0,0
10.07.2020 06:00:00 15,4 13,9 30 16 44 24 NNW - 0,0
10.07.2020 05:00:00 15,7 14,6 24 13 36 20 NW 25 0,0
10.07.2020 04:00:00 15,7 14,7 19 11 40 21 NW - 0,0
10.07.2020 03:00:00 15,9 14,8 21 11 36 20 W - 0,0
10.07.2020 02:00:00 16,0 13,8 19 11 41 22 NW 14 0,0
10.07.2020 01:00:00 15,6 14,3 25 13 42 23 WNW - 0,0
10.07.2020 00:00:00 16,1 14,6 30 16 38 21 W - 0,0
09.07.2020 23:00:00 16,1 14,5 30 16 42 23 W 14 0,0
09.07.2020 22:00:00 16,6 14,4 30 16 46 25 W - 0,0
09.07.2020 21:00:00 16,7 14,9 32 17 47 26 W - 0,0
09.07.2020 20:00:00 16,8 15,7 35 19 48 26 W 6 0,2
09.07.2020 19:00:00 17,7 16,6 22 12 40 22 W - 0,0
09.07.2020 18:00:00 18,5 16,5 19 10 39 21 WSW - 0,0
09.07.2020 17:00:00 17,9 15,9 23 12 41 22 WSW 10 0,0
09.07.2020 16:00:00 19,0 16,2 18 10 36 19 W - 0,0
09.07.2020 15:00:00 18,0 16,0 20 11 38 21 WSW - 0,0
09.07.2020 14:00:00 17,3 15,8 17 9 38 21 WSW 10 0,0
09.07.2020 13:00:00 16,5 15,5 21 12 37 20 W - 0,0
09.07.2020 12:00:00 16,6 15,6 17 9 31 17 W - 0,0
09.07.2020 11:00:00 15,9 15,4 16 9 28 15 W 10 0,0
09.07.2020 10:00:00 15,5 15,2 15 8 29 15 WSW - 0,0
09.07.2020 09:00:00 15,0 14,7 10 5 22 12 WNW - 0,0
09.07.2020 08:00:00 14,4 14,1 14 8 22 12 NW 0,2 0,0
09.07.2020 07:00:00 14,5 14,2 16 8 26 14 NW - 0,0
09.07.2020 06:00:00 14,8 14,5 16 9 26 14 WNW - 0,0
09.07.2020 05:00:00 15,0 14,7 15 8 32 18 NW 0,1 0,0
09.07.2020 04:00:00 15,4 14,9 18 10 31 17 NW - 0,0
09.07.2020 03:00:00 15,6 15,0 20 11 39 21 WNW - 0,0
09.07.2020 02:00:00 16,0 15,0 26 14 39 21 NW 25 0,0
09.07.2020 01:00:00 16,8 15,5 19 11 31 17 WNW - 0,0
09.07.2020 00:00:00 17,0 15,9 19 10 30 16 W - 0,0
08.07.2020 23:00:00 17,1 15,6 25 14 33 18 W 25 0,0
08.07.2020 22:00:00 17,8 15,6 25 13 31 17 W - 0,0
08.07.2020 21:00:00 18,6 16,0 26 14 36 20 W - 0,0
08.07.2020 20:00:00 18,4 15,6 23 13 36 19 W 25 0,0
08.07.2020 19:00:00 18,6 15,5 21 11 39 21 W - 0,0
08.07.2020 18:00:00 18,7 15,6 18 10 37 20 W - 0,0

tt = Température de l'air
td = dewpoint
ff = Vitesse du vent
fx = gusts
dd = Direction du vent
vv = visibility
rr = Quantités de précipitations

stations d'obs. à proximité